sensor_id;sensor_type;location;lat;lon;timestamp;P1;durP1;ratioP1;P2;durP2;ratioP2
12332;SDS011;6232;48.094;11.288;2023-08-17T00:02:30;8.73;;;6.63;;
12332;SDS011;6232;48.094;11.288;2023-08-17T00:05:16;8.63;;;6.93;;
12332;SDS011;6232;48.094;11.288;2023-08-17T00:08:01;8.80;;;6.50;;
12332;SDS011;6232;48.094;11.288;2023-08-17T00:10:47;10.90;;;6.53;;
12332;SDS011;6232;48.094;11.288;2023-08-17T00:13:33;7.80;;;7.10;;
12332;SDS011;6232;48.094;11.288;2023-08-17T00:16:18;6.50;;;5.90;;
12332;SDS011;6232;48.094;11.288;2023-08-17T00:19:04;7.73;;;6.03;;
12332;SDS011;6232;48.094;11.288;2023-08-17T00:21:50;7.50;;;6.30;;
12332;SDS011;6232;48.094;11.288;2023-08-17T00:24:36;12.63;;;6.17;;
12332;SDS011;6232;48.094;11.288;2023-08-17T00:27:21;8.43;;;7.07;;
12332;SDS011;6232;48.094;11.288;2023-08-17T00:30:08;7.07;;;5.83;;
12332;SDS011;6232;48.094;11.288;2023-08-17T00:32:53;7.33;;;6.30;;
12332;SDS011;6232;48.094;11.288;2023-08-17T00:35:39;7.10;;;6.40;;
12332;SDS011;6232;48.094;11.288;2023-08-17T00:38:24;8.03;;;5.80;;
12332;SDS011;6232;48.094;11.288;2023-08-17T00:41:10;7.30;;;6.23;;
12332;SDS011;6232;48.094;11.288;2023-08-17T00:43:56;6.90;;;5.13;;
12332;SDS011;6232;48.094;11.288;2023-08-17T00:46:41;7.50;;;6.30;;
12332;SDS011;6232;48.094;11.288;2023-08-17T00:49:27;6.67;;;5.93;;
12332;SDS011;6232;48.094;11.288;2023-08-17T00:52:13;7.63;;;6.20;;
12332;SDS011;6232;48.094;11.288;2023-08-17T00:54:58;11.73;;;6.33;;
12332;SDS011;6232;48.094;11.288;2023-08-17T00:57:45;10.57;;;6.60;;
12332;SDS011;6232;48.094;11.288;2023-08-17T01:00:31;6.57;;;5.73;;
12332;SDS011;6232;48.094;11.288;2023-08-17T01:03:17;6.83;;;6.13;;
12332;SDS011;6232;48.094;11.288;2023-08-17T01:06:03;6.87;;;6.27;;
12332;SDS011;6232;48.094;11.288;2023-08-17T01:08:49;9.83;;;6.30;;
12332;SDS011;6232;48.094;11.288;2023-08-17T01:11:40;12.00;;;7.30;;
12332;SDS011;6232;48.094;11.288;2023-08-17T01:14:30;8.80;;;7.43;;
12332;SDS011;6232;48.094;11.288;2023-08-17T01:17:29;7.50;;;6.70;;
12332;SDS011;6232;48.094;11.288;2023-08-17T01:20:15;7.77;;;6.80;;
12332;SDS011;6232;48.094;11.288;2023-08-17T01:23:08;7.23;;;6.53;;
12332;SDS011;6232;48.094;11.288;2023-08-17T01:25:54;6.70;;;6.10;;
12332;SDS011;6232;48.094;11.288;2023-08-17T01:28:46;7.37;;;6.67;;
12332;SDS011;6232;48.094;11.288;2023-08-17T01:34:39;11.13;;;7.10;;
12332;SDS011;6232;48.094;11.288;2023-08-17T01:37:26;7.83;;;6.53;;
12332;SDS011;6232;48.094;11.288;2023-08-17T01:40:13;11.23;;;7.13;;
12332;SDS011;6232;48.094;11.288;2023-08-17T01:43:00;7.57;;;6.73;;
12332;SDS011;6232;48.094;11.288;2023-08-17T01:45:46;7.90;;;7.10;;
12332;SDS011;6232;48.094;11.288;2023-08-17T01:48:32;8.20;;;7.40;;
12332;SDS011;6232;48.094;11.288;2023-08-17T01:51:18;8.27;;;7.47;;
12332;SDS011;6232;48.094;11.288;2023-08-17T01:54:07;8.87;;;6.50;;
12332;SDS011;6232;48.094;11.288;2023-08-17T01:56:52;7.53;;;6.30;;
12332;SDS011;6232;48.094;11.288;2023-08-17T01:59:38;8.93;;;6.77;;
12332;SDS011;6232;48.094;11.288;2023-08-17T02:02:23;8.97;;;7.47;;
12332;SDS011;6232;48.094;11.288;2023-08-17T02:05:09;8.10;;;7.13;;
12332;SDS011;6232;48.094;11.288;2023-08-17T02:07:54;7.70;;;6.70;;
12332;SDS011;6232;48.094;11.288;2023-08-17T02:10:40;8.53;;;7.53;;
12332;SDS011;6232;48.094;11.288;2023-08-17T02:13:25;7.03;;;6.33;;
12332;SDS011;6232;48.094;11.288;2023-08-17T02:16:12;8.70;;;7.37;;
12332;SDS011;6232;48.094;11.288;2023-08-17T02:18:58;18.10;;;8.00;;
12332;SDS011;6232;48.094;11.288;2023-08-17T02:21:43;8.60;;;7.50;;
12332;SDS011;6232;48.094;11.288;2023-08-17T02:24:29;8.27;;;7.43;;
12332;SDS011;6232;48.094;11.288;2023-08-17T02:27:15;8.53;;;7.10;;
12332;SDS011;6232;48.094;11.288;2023-08-17T02:30:01;7.90;;;7.20;;
12332;SDS011;6232;48.094;11.288;2023-08-17T02:32:46;9.03;;;8.03;;
12332;SDS011;6232;48.094;11.288;2023-08-17T02:35:32;10.70;;;8.70;;
12332;SDS011;6232;48.094;11.288;2023-08-17T02:38:18;11.83;;;7.77;;
12332;SDS011;6232;48.094;11.288;2023-08-17T02:41:04;7.60;;;6.50;;
12332;SDS011;6232;48.094;11.288;2023-08-17T02:43:49;8.90;;;7.03;;
12332;SDS011;6232;48.094;11.288;2023-08-17T02:46:35;9.50;;;7.60;;
12332;SDS011;6232;48.094;11.288;2023-08-17T02:49:20;8.30;;;7.00;;
12332;SDS011;6232;48.094;11.288;2023-08-17T02:52:06;10.13;;;7.27;;
12332;SDS011;6232;48.094;11.288;2023-08-17T02:54:52;8.40;;;7.60;;
12332;SDS011;6232;48.094;11.288;2023-08-17T02:57:37;8.77;;;7.77;;
12332;SDS011;6232;48.094;11.288;2023-08-17T03:00:23;7.53;;;6.63;;
12332;SDS011;6232;48.094;11.288;2023-08-17T03:03:08;8.97;;;6.93;;
12332;SDS011;6232;48.094;11.288;2023-08-17T03:05:54;8.10;;;7.20;;
12332;SDS011;6232;48.094;11.288;2023-08-17T03:08:39;8.30;;;7.50;;
12332;SDS011;6232;48.094;11.288;2023-08-17T03:11:25;7.93;;;7.00;;
12332;SDS011;6232;48.094;11.288;2023-08-17T03:14:10;8.03;;;7.20;;
12332;SDS011;6232;48.094;11.288;2023-08-17T03:16:56;8.83;;;8.00;;
12332;SDS011;6232;48.094;11.288;2023-08-17T03:19:41;7.33;;;6.53;;
12332;SDS011;6232;48.094;11.288;2023-08-17T03:22:27;7.90;;;6.73;;
12332;SDS011;6232;48.094;11.288;2023-08-17T03:25:13;16.00;;;13.47;;
12332;SDS011;6232;48.094;11.288;2023-08-17T03:27:59;10.03;;;8.50;;
12332;SDS011;6232;48.094;11.288;2023-08-17T03:30:44;8.53;;;7.73;;
12332;SDS011;6232;48.094;11.288;2023-08-17T03:33:30;7.20;;;6.50;;
12332;SDS011;6232;48.094;11.288;2023-08-17T03:36:15;7.83;;;6.77;;
12332;SDS011;6232;48.094;11.288;2023-08-17T03:39:01;8.60;;;7.80;;
12332;SDS011;6232;48.094;11.288;2023-08-17T03:41:47;8.80;;;7.90;;
12332;SDS011;6232;48.094;11.288;2023-08-17T03:44:32;8.23;;;7.43;;
12332;SDS011;6232;48.094;11.288;2023-08-17T03:47:18;8.57;;;7.40;;
12332;SDS011;6232;48.094;11.288;2023-08-17T03:50:04;8.53;;;6.83;;
12332;SDS011;6232;48.094;11.288;2023-08-17T03:52:49;8.53;;;7.30;;
12332;SDS011;6232;48.094;11.288;2023-08-17T03:55:35;7.37;;;6.63;;
12332;SDS011;6232;48.094;11.288;2023-08-17T03:58:20;12.33;;;7.73;;
12332;SDS011;6232;48.094;11.288;2023-08-17T04:01:06;9.20;;;8.30;;
12332;SDS011;6232;48.094;11.288;2023-08-17T04:03:52;10.00;;;8.93;;
12332;SDS011;6232;48.094;11.288;2023-08-17T04:06:37;9.63;;;8.53;;
12332;SDS011;6232;48.094;11.288;2023-08-17T04:09:24;9.60;;;8.07;;
12332;SDS011;6232;48.094;11.288;2023-08-17T04:12:10;9.20;;;8.30;;
12332;SDS011;6232;48.094;11.288;2023-08-17T04:14:55;10.37;;;9.00;;
12332;SDS011;6232;48.094;11.288;2023-08-17T04:17:41;10.93;;;8.80;;
12332;SDS011;6232;48.094;11.288;2023-08-17T04:20:26;13.80;;;9.37;;
12332;SDS011;6232;48.094;11.288;2023-08-17T04:23:12;11.00;;;8.73;;
12332;SDS011;6232;48.094;11.288;2023-08-17T04:25:59;10.53;;;9.13;;
12332;SDS011;6232;48.094;11.288;2023-08-17T04:28:44;13.53;;;9.87;;
12332;SDS011;6232;48.094;11.288;2023-08-17T04:31:30;11.00;;;9.50;;
12332;SDS011;6232;48.094;11.288;2023-08-17T04:34:15;10.13;;;8.37;;
12332;SDS011;6232;48.094;11.288;2023-08-17T04:37:01;13.17;;;9.47;;
12332;SDS011;6232;48.094;11.288;2023-08-17T04:39:47;9.87;;;8.87;;
12332;SDS011;6232;48.094;11.288;2023-08-17T04:42:34;9.30;;;8.33;;
12332;SDS011;6232;48.094;11.288;2023-08-17T04:45:20;9.47;;;8.33;;
12332;SDS011;6232;48.094;11.288;2023-08-17T04:48:05;9.97;;;8.93;;
12332;SDS011;6232;48.094;11.288;2023-08-17T04:50:51;12.37;;;8.50;;
12332;SDS011;6232;48.094;11.288;2023-08-17T04:53:37;11.63;;;7.73;;
12332;SDS011;6232;48.094;11.288;2023-08-17T04:56:22;9.70;;;8.30;;
12332;SDS011;6232;48.094;11.288;2023-08-17T04:59:08;10.83;;;9.80;;
12332;SDS011;6232;48.094;11.288;2023-08-17T05:01:53;15.20;;;9.20;;
12332;SDS011;6232;48.094;11.288;2023-08-17T05:04:39;19.43;;;10.03;;
12332;SDS011;6232;48.094;11.288;2023-08-17T05:07:25;12.27;;;9.57;;
12332;SDS011;6232;48.094;11.288;2023-08-17T05:10:10;21.97;;;10.40;;
12332;SDS011;6232;48.094;11.288;2023-08-17T05:12:56;10.23;;;9.13;;
12332;SDS011;6232;48.094;11.288;2023-08-17T05:15:41;11.70;;;9.30;;
12332;SDS011;6232;48.094;11.288;2023-08-17T05:18:27;11.50;;;10.20;;
12332;SDS011;6232;48.094;11.288;2023-08-17T05:21:12;10.47;;;9.37;;
12332;SDS011;6232;48.094;11.288;2023-08-17T05:23:58;12.87;;;10.37;;
12332;SDS011;6232;48.094;11.288;2023-08-17T05:26:44;12.53;;;9.73;;
12332;SDS011;6232;48.094;11.288;2023-08-17T05:29:29;10.80;;;9.70;;
12332;SDS011;6232;48.094;11.288;2023-08-17T05:32:15;11.63;;;10.30;;
12332;SDS011;6232;48.094;11.288;2023-08-17T05:35:00;10.37;;;9.17;;
12332;SDS011;6232;48.094;11.288;2023-08-17T05:37:46;11.40;;;9.00;;
12332;SDS011;6232;48.094;11.288;2023-08-17T05:40:32;11.17;;;10.07;;
12332;SDS011;6232;48.094;11.288;2023-08-17T05:43:17;14.23;;;8.60;;
12332;SDS011;6232;48.094;11.288;2023-08-17T05:49:26;9.20;;;8.30;;
12332;SDS011;6232;48.094;11.288;2023-08-17T05:52:12;13.77;;;8.73;;
12332;SDS011;6232;48.094;11.288;2023-08-17T05:54:58;9.50;;;8.50;;
12332;SDS011;6232;48.094;11.288;2023-08-17T05:57:44;22.33;;;10.30;;
12332;SDS011;6232;48.094;11.288;2023-08-17T06:00:29;9.67;;;8.53;;
12332;SDS011;6232;48.094;11.288;2023-08-17T06:03:15;10.40;;;8.93;;
12332;SDS011;6232;48.094;11.288;2023-08-17T06:06:01;11.17;;;9.83;;
12332;SDS011;6232;48.094;11.288;2023-08-17T06:08:46;11.80;;;8.97;;
12332;SDS011;6232;48.094;11.288;2023-08-17T06:11:32;9.63;;;8.73;;
12332;SDS011;6232;48.094;11.288;2023-08-17T06:14:18;12.00;;;10.00;;
12332;SDS011;6232;48.094;11.288;2023-08-17T06:17:03;11.37;;;9.60;;
12332;SDS011;6232;48.094;11.288;2023-08-17T06:19:49;9.63;;;8.63;;
12332;SDS011;6232;48.094;11.288;2023-08-17T06:22:34;9.53;;;8.63;;
12332;SDS011;6232;48.094;11.288;2023-08-17T06:25:20;9.47;;;8.33;;
12332;SDS011;6232;48.094;11.288;2023-08-17T06:28:06;11.47;;;10.27;;
12332;SDS011;6232;48.094;11.288;2023-08-17T06:30:55;13.97;;;8.57;;
12332;SDS011;6232;48.094;11.288;2023-08-17T06:33:40;11.83;;;8.60;;
12332;SDS011;6232;48.094;11.288;2023-08-17T06:36:29;9.30;;;8.37;;
12332;SDS011;6232;48.094;11.288;2023-08-17T06:39:14;10.77;;;8.63;;
12332;SDS011;6232;48.094;11.288;2023-08-17T06:42:00;9.20;;;8.30;;
12332;SDS011;6232;48.094;11.288;2023-08-17T06:44:45;9.00;;;8.10;;
12332;SDS011;6232;48.094;11.288;2023-08-17T06:47:31;8.50;;;7.70;;
12332;SDS011;6232;48.094;11.288;2023-08-17T06:50:17;9.10;;;8.20;;
12332;SDS011;6232;48.094;11.288;2023-08-17T06:53:02;9.83;;;8.33;;
12332;SDS011;6232;48.094;11.288;2023-08-17T06:55:48;9.20;;;8.30;;
12332;SDS011;6232;48.094;11.288;2023-08-17T06:58:34;9.27;;;8.17;;
12332;SDS011;6232;48.094;11.288;2023-08-17T07:01:19;8.70;;;7.63;;
12332;SDS011;6232;48.094;11.288;2023-08-17T07:04:05;8.80;;;8.00;;
12332;SDS011;6232;48.094;11.288;2023-08-17T07:06:50;9.10;;;8.10;;
12332;SDS011;6232;48.094;11.288;2023-08-17T07:09:36;9.70;;;7.97;;
12332;SDS011;6232;48.094;11.288;2023-08-17T07:12:22;9.43;;;7.93;;
12332;SDS011;6232;48.094;11.288;2023-08-17T07:15:09;9.37;;;7.30;;
12332;SDS011;6232;48.094;11.288;2023-08-17T07:17:55;8.57;;;7.67;;
12332;SDS011;6232;48.094;11.288;2023-08-17T07:20:41;13.63;;;8.63;;
12332;SDS011;6232;48.094;11.288;2023-08-17T07:23:26;8.83;;;7.97;;
12332;SDS011;6232;48.094;11.288;2023-08-17T07:26:12;8.73;;;7.83;;
12332;SDS011;6232;48.094;11.288;2023-08-17T07:28:57;10.30;;;7.90;;
12332;SDS011;6232;48.094;11.288;2023-08-17T07:31:43;12.70;;;7.03;;
12332;SDS011;6232;48.094;11.288;2023-08-17T07:34:29;13.10;;;7.70;;
12332;SDS011;6232;48.094;11.288;2023-08-17T07:37:16;7.80;;;7.00;;
12332;SDS011;6232;48.094;11.288;2023-08-17T07:40:02;8.93;;;8.00;;
12332;SDS011;6232;48.094;11.288;2023-08-17T07:42:50;8.50;;;7.60;;
12332;SDS011;6232;48.094;11.288;2023-08-17T07:45:36;11.90;;;7.30;;
12332;SDS011;6232;48.094;11.288;2023-08-17T07:48:21;7.20;;;6.57;;
12332;SDS011;6232;48.094;11.288;2023-08-17T07:51:07;7.67;;;6.83;;
12332;SDS011;6232;48.094;11.288;2023-08-17T07:53:52;11.50;;;7.17;;
12332;SDS011;6232;48.094;11.288;2023-08-17T07:56:38;7.30;;;6.60;;
12332;SDS011;6232;48.094;11.288;2023-08-17T07:59:23;8.90;;;7.70;;
12332;SDS011;6232;48.094;11.288;2023-08-17T08:02:09;9.43;;;7.53;;
12332;SDS011;6232;48.094;11.288;2023-08-17T08:04:55;8.03;;;7.23;;
12332;SDS011;6232;48.094;11.288;2023-08-17T08:07:40;8.27;;;7.57;;
12332;SDS011;6232;48.094;11.288;2023-08-17T08:10:27;7.57;;;6.77;;
12332;SDS011;6232;48.094;11.288;2023-08-17T08:13:13;7.90;;;7.10;;
12332;SDS011;6232;48.094;11.288;2023-08-17T08:15:59;9.03;;;6.80;;
12332;SDS011;6232;48.094;11.288;2023-08-17T08:18:45;8.03;;;6.73;;
12332;SDS011;6232;48.094;11.288;2023-08-17T08:21:30;8.80;;;6.97;;
12332;SDS011;6232;48.094;11.288;2023-08-17T08:24:16;7.13;;;6.53;;
12332;SDS011;6232;48.094;11.288;2023-08-17T08:27:01;7.90;;;7.10;;
12332;SDS011;6232;48.094;11.288;2023-08-17T08:29:47;8.30;;;6.77;;
12332;SDS011;6232;48.094;11.288;2023-08-17T08:32:33;8.60;;;7.70;;
12332;SDS011;6232;48.094;11.288;2023-08-17T08:35:18;10.53;;;6.00;;
12332;SDS011;6232;48.094;11.288;2023-08-17T08:38:04;6.80;;;6.20;;
12332;SDS011;6232;48.094;11.288;2023-08-17T08:40:50;8.10;;;6.50;;
12332;SDS011;6232;48.094;11.288;2023-08-17T08:43:36;6.37;;;5.77;;
12332;SDS011;6232;48.094;11.288;2023-08-17T08:46:21;6.77;;;6.17;;
12332;SDS011;6232;48.094;11.288;2023-08-17T08:49:10;6.07;;;5.20;;
12332;SDS011;6232;48.094;11.288;2023-08-17T08:51:55;8.73;;;5.50;;
12332;SDS011;6232;48.094;11.288;2023-08-17T08:54:45;7.27;;;6.27;;
12332;SDS011;6232;48.094;11.288;2023-08-17T08:57:34;7.97;;;5.47;;
12332;SDS011;6232;48.094;11.288;2023-08-17T09:00:19;10.03;;;6.90;;
12332;SDS011;6232;48.094;11.288;2023-08-17T09:03:05;10.27;;;5.10;;
12332;SDS011;6232;48.094;11.288;2023-08-17T09:05:51;5.67;;;4.90;;
12332;SDS011;6232;48.094;11.288;2023-08-17T09:08:37;5.47;;;4.97;;
12332;SDS011;6232;48.094;11.288;2023-08-17T09:11:24;5.77;;;5.23;;
12332;SDS011;6232;48.094;11.288;2023-08-17T09:14:09;9.67;;;5.67;;
12332;SDS011;6232;48.094;11.288;2023-08-17T09:16:55;13.00;;;5.67;;
12332;SDS011;6232;48.094;11.288;2023-08-17T09:19:47;7.23;;;5.17;;
12332;SDS011;6232;48.094;11.288;2023-08-17T09:22:42;7.57;;;5.40;;
12332;SDS011;6232;48.094;11.288;2023-08-17T09:25:28;7.60;;;5.40;;
12332;SDS011;6232;48.094;11.288;2023-08-17T09:28:14;10.20;;;5.47;;
12332;SDS011;6232;48.094;11.288;2023-08-17T09:31:01;6.73;;;5.83;;
12332;SDS011;6232;48.094;11.288;2023-08-17T09:33:51;10.13;;;5.27;;
12332;SDS011;6232;48.094;11.288;2023-08-17T09:36:37;5.87;;;4.80;;
12332;SDS011;6232;48.094;11.288;2023-08-17T09:39:24;6.47;;;5.00;;
12332;SDS011;6232;48.094;11.288;2023-08-17T09:42:10;7.87;;;5.20;;
12332;SDS011;6232;48.094;11.288;2023-08-17T09:44:56;8.03;;;5.00;;
12332;SDS011;6232;48.094;11.288;2023-08-17T09:47:43;5.93;;;4.83;;
12332;SDS011;6232;48.094;11.288;2023-08-17T09:50:28;5.60;;;4.73;;
12332;SDS011;6232;48.094;11.288;2023-08-17T09:53:15;12.10;;;4.73;;
12332;SDS011;6232;48.094;11.288;2023-08-17T09:56:00;5.23;;;4.73;;
12332;SDS011;6232;48.094;11.288;2023-08-17T09:58:46;5.30;;;4.67;;
12332;SDS011;6232;48.094;11.288;2023-08-17T10:01:32;4.60;;;4.20;;
12332;SDS011;6232;48.094;11.288;2023-08-17T10:04:21;5.87;;;4.80;;
12332;SDS011;6232;48.094;11.288;2023-08-17T10:07:09;5.37;;;4.60;;
12332;SDS011;6232;48.094;11.288;2023-08-17T10:09:59;6.03;;;4.33;;
12332;SDS011;6232;48.094;11.288;2023-08-17T10:12:58;4.60;;;4.20;;
12332;SDS011;6232;48.094;11.288;2023-08-17T10:15:45;4.60;;;4.20;;
12332;SDS011;6232;48.094;11.288;2023-08-17T10:21:40;5.10;;;4.67;;
12332;SDS011;6232;48.094;11.288;2023-08-17T10:24:29;9.10;;;4.83;;
12332;SDS011;6232;48.094;11.288;2023-08-17T10:27:15;5.30;;;4.90;;
12332;SDS011;6232;48.094;11.288;2023-08-17T10:30:02;12.60;;;5.33;;
12332;SDS011;6232;48.094;11.288;2023-08-17T10:32:47;9.07;;;5.10;;
12332;SDS011;6232;48.094;11.288;2023-08-17T10:35:33;11.80;;;4.97;;
12332;SDS011;6232;48.094;11.288;2023-08-17T10:38:20;5.67;;;5.00;;
12332;SDS011;6232;48.094;11.288;2023-08-17T10:41:12;5.97;;;4.83;;
12332;SDS011;6232;48.094;11.288;2023-08-17T10:43:58;10.33;;;4.53;;
12332;SDS011;6232;48.094;11.288;2023-08-17T10:46:44;7.57;;;4.67;;
12332;SDS011;6232;48.094;11.288;2023-08-17T10:49:31;5.57;;;4.93;;
12332;SDS011;6232;48.094;11.288;2023-08-17T10:55:12;5.10;;;4.30;;
12332;SDS011;6232;48.094;11.288;2023-08-17T10:57:57;15.03;;;5.00;;
12332;SDS011;6232;48.094;11.288;2023-08-17T11:00:43;6.07;;;4.40;;
12332;SDS011;6232;48.094;11.288;2023-08-17T11:03:29;6.10;;;4.50;;
12332;SDS011;6232;48.094;11.288;2023-08-17T11:06:16;5.13;;;4.67;;
12332;SDS011;6232;48.094;11.288;2023-08-17T11:09:05;6.10;;;4.50;;
12332;SDS011;6232;48.094;11.288;2023-08-17T11:11:52;8.70;;;4.40;;
12332;SDS011;6232;48.094;11.288;2023-08-17T11:14:39;4.73;;;4.33;;
12332;SDS011;6232;48.094;11.288;2023-08-17T11:17:24;5.07;;;3.60;;
12332;SDS011;6232;48.094;11.288;2023-08-17T11:20:11;7.87;;;4.10;;
12332;SDS011;6232;48.094;11.288;2023-08-17T11:22:57;4.60;;;4.20;;
12332;SDS011;6232;48.094;11.288;2023-08-17T11:25:42;3.97;;;3.60;;
12332;SDS011;6232;48.094;11.288;2023-08-17T11:28:31;4.23;;;3.83;;
12332;SDS011;6232;48.094;11.288;2023-08-17T11:31:26;4.40;;;4.00;;
12332;SDS011;6232;48.094;11.288;2023-08-17T11:34:14;4.37;;;3.97;;
12332;SDS011;6232;48.094;11.288;2023-08-17T11:36:59;4.33;;;3.93;;
12332;SDS011;6232;48.094;11.288;2023-08-17T11:39:45;11.97;;;4.50;;
12332;SDS011;6232;48.094;11.288;2023-08-17T11:42:31;6.30;;;3.77;;
12332;SDS011;6232;48.094;11.288;2023-08-17T11:45:16;5.30;;;3.90;;
12332;SDS011;6232;48.094;11.288;2023-08-17T11:48:02;6.47;;;3.67;;
12332;SDS011;6232;48.094;11.288;2023-08-17T11:50:49;4.17;;;3.77;;
12332;SDS011;6232;48.094;11.288;2023-08-17T11:53:37;4.17;;;3.87;;
12332;SDS011;6232;48.094;11.288;2023-08-17T11:56:24;4.80;;;4.23;;
12332;SDS011;6232;48.094;11.288;2023-08-17T11:59:10;4.47;;;4.10;;
12332;SDS011;6232;48.094;11.288;2023-08-17T12:01:56;4.88;;;4.25;;
12332;SDS011;6232;48.094;11.288;2023-08-17T12:04:43;4.03;;;3.63;;
12332;SDS011;6232;48.094;11.288;2023-08-17T12:07:29;3.85;;;3.55;;
12332;SDS011;6232;48.094;11.288;2023-08-17T12:10:14;4.13;;;3.72;;
12332;SDS011;6232;48.094;11.288;2023-08-17T12:13:00;5.72;;;3.53;;
12332;SDS011;6232;48.094;11.288;2023-08-17T12:15:46;3.67;;;3.30;;
12332;SDS011;6232;48.094;11.288;2023-08-17T12:18:32;5.20;;;3.78;;
12332;SDS011;6232;48.094;11.288;2023-08-17T12:21:22;4.80;;;3.65;;
12332;SDS011;6232;48.094;11.288;2023-08-17T12:24:10;4.55;;;4.15;;
12332;SDS011;6232;48.094;11.288;2023-08-17T12:26:59;5.93;;;4.53;;
12332;SDS011;6232;48.094;11.288;2023-08-17T12:29:46;3.55;;;3.33;;
12332;SDS011;6232;48.094;11.288;2023-08-17T12:32:33;11.77;;;4.05;;
12332;SDS011;6232;48.094;11.288;2023-08-17T12:35:19;4.22;;;3.60;;
12332;SDS011;6232;48.094;11.288;2023-08-17T12:38:06;4.57;;;2.90;;
12332;SDS011;6232;48.094;11.288;2023-08-17T12:40:52;3.42;;;3.22;;
12332;SDS011;6232;48.094;11.288;2023-08-17T12:43:38;5.07;;;3.90;;
12332;SDS011;6232;48.094;11.288;2023-08-17T12:46:23;3.92;;;3.53;;
12332;SDS011;6232;48.094;11.288;2023-08-17T12:49:09;4.85;;;3.40;;
12332;SDS011;6232;48.094;11.288;2023-08-17T12:51:55;5.38;;;3.85;;
12332;SDS011;6232;48.094;11.288;2023-08-17T12:54:40;3.38;;;3.08;;
12332;SDS011;6232;48.094;11.288;2023-08-17T12:57:26;3.35;;;3.05;;
12332;SDS011;6232;48.094;11.288;2023-08-17T13:00:12;3.13;;;2.92;;
12332;SDS011;6232;48.094;11.288;2023-08-17T13:02:57;3.30;;;3.05;;
12332;SDS011;6232;48.094;11.288;2023-08-17T13:05:43;3.65;;;3.30;;
12332;SDS011;6232;48.094;11.288;2023-08-17T13:08:29;3.67;;;3.38;;
12332;SDS011;6232;48.094;11.288;2023-08-17T13:11:14;3.78;;;2.75;;
12332;SDS011;6232;48.094;11.288;2023-08-17T13:14:00;3.00;;;2.33;;
12332;SDS011;6232;48.094;11.288;2023-08-17T13:16:45;3.70;;;3.10;;
12332;SDS011;6232;48.094;11.288;2023-08-17T13:19:31;3.55;;;3.25;;
12332;SDS011;6232;48.094;11.288;2023-08-17T13:22:17;3.63;;;2.70;;
12332;SDS011;6232;48.094;11.288;2023-08-17T13:25:02;3.92;;;2.45;;
12332;SDS011;6232;48.094;11.288;2023-08-17T13:27:48;6.57;;;3.28;;
12332;SDS011;6232;48.094;11.288;2023-08-17T13:30:34;4.93;;;3.13;;
12332;SDS011;6232;48.094;11.288;2023-08-17T13:33:19;2.97;;;2.78;;
12332;SDS011;6232;48.094;11.288;2023-08-17T13:36:05;3.45;;;2.70;;
12332;SDS011;6232;48.094;11.288;2023-08-17T13:38:51;5.50;;;2.47;;
12332;SDS011;6232;48.094;11.288;2023-08-17T13:41:37;3.72;;;2.67;;
12332;SDS011;6232;48.094;11.288;2023-08-17T13:44:22;3.20;;;2.90;;
12332;SDS011;6232;48.094;11.288;2023-08-17T13:47:08;3.30;;;3.00;;
12332;SDS011;6232;48.094;11.288;2023-08-17T13:49:53;3.08;;;2.88;;
12332;SDS011;6232;48.094;11.288;2023-08-17T13:52:39;3.17;;;2.97;;
12332;SDS011;6232;48.094;11.288;2023-08-17T13:55:24;5.18;;;3.08;;
12332;SDS011;6232;48.094;11.288;2023-08-17T13:58:10;3.42;;;3.13;;
12332;SDS011;6232;48.094;11.288;2023-08-17T14:00:56;3.47;;;3.17;;
12332;SDS011;6232;48.094;11.288;2023-08-17T14:03:42;3.22;;;2.83;;
12332;SDS011;6232;48.094;11.288;2023-08-17T14:06:28;4.57;;;3.70;;
12332;SDS011;6232;48.094;11.288;2023-08-17T14:09:13;3.50;;;3.20;;
12332;SDS011;6232;48.094;11.288;2023-08-17T14:11:59;3.55;;;3.22;;
12332;SDS011;6232;48.094;11.288;2023-08-17T14:14:46;4.30;;;3.42;;
12332;SDS011;6232;48.094;11.288;2023-08-17T14:17:31;3.30;;;3.00;;
12332;SDS011;6232;48.094;11.288;2023-08-17T14:20:17;3.75;;;3.45;;
12332;SDS011;6232;48.094;11.288;2023-08-17T14:23:03;3.92;;;3.63;;
12332;SDS011;6232;48.094;11.288;2023-08-17T14:25:48;4.25;;;3.53;;
12332;SDS011;6232;48.094;11.288;2023-08-17T14:28:34;5.33;;;3.90;;
12332;SDS011;6232;48.094;11.288;2023-08-17T14:31:20;5.97;;;3.70;;
12332;SDS011;6232;48.094;11.288;2023-08-17T14:34:05;4.60;;;4.10;;
12332;SDS011;6232;48.094;11.288;2023-08-17T14:36:51;3.90;;;3.50;;
12332;SDS011;6232;48.094;11.288;2023-08-17T14:39:36;7.60;;;3.90;;
12332;SDS011;6232;48.094;11.288;2023-08-17T14:42:22;3.15;;;2.92;;
12332;SDS011;6232;48.094;11.288;2023-08-17T14:45:08;3.85;;;3.40;;
12332;SDS011;6232;48.094;11.288;2023-08-17T14:47:54;3.25;;;2.95;;
12332;SDS011;6232;48.094;11.288;2023-08-17T14:50:43;3.10;;;2.90;;
12332;SDS011;6232;48.094;11.288;2023-08-17T14:53:28;5.32;;;2.80;;
12332;SDS011;6232;48.094;11.288;2023-08-17T14:56:14;3.75;;;2.85;;
12332;SDS011;6232;48.094;11.288;2023-08-17T14:59:00;5.28;;;3.60;;
12332;SDS011;6232;48.094;11.288;2023-08-17T15:01:45;4.47;;;3.30;;
12332;SDS011;6232;48.094;11.288;2023-08-17T15:04:31;3.28;;;2.97;;
12332;SDS011;6232;48.094;11.288;2023-08-17T15:07:16;4.40;;;3.93;;
12332;SDS011;6232;48.094;11.288;2023-08-17T15:10:02;4.10;;;3.70;;
12332;SDS011;6232;48.094;11.288;2023-08-17T15:12:47;4.50;;;4.10;;
12332;SDS011;6232;48.094;11.288;2023-08-17T15:15:34;6.80;;;4.03;;
12332;SDS011;6232;48.094;11.288;2023-08-17T15:18:19;6.33;;;4.53;;
12332;SDS011;6232;48.094;11.288;2023-08-17T15:21:05;7.70;;;4.73;;
12332;SDS011;6232;48.094;11.288;2023-08-17T15:23:51;4.97;;;4.47;;
12332;SDS011;6232;48.094;11.288;2023-08-17T15:26:36;4.37;;;3.90;;
12332;SDS011;6232;48.094;11.288;2023-08-17T15:29:22;6.50;;;4.70;;
12332;SDS011;6232;48.094;11.288;2023-08-17T15:32:08;4.60;;;4.20;;
12332;SDS011;6232;48.094;11.288;2023-08-17T15:34:54;6.47;;;4.67;;
12332;SDS011;6232;48.094;11.288;2023-08-17T15:37:40;5.80;;;4.70;;
12332;SDS011;6232;48.094;11.288;2023-08-17T15:40:25;8.30;;;4.10;;
12332;SDS011;6232;48.094;11.288;2023-08-17T15:43:11;5.67;;;4.20;;
12332;SDS011;6232;48.094;11.288;2023-08-17T15:45:56;5.60;;;4.30;;
12332;SDS011;6232;48.094;11.288;2023-08-17T15:48:42;4.60;;;4.20;;
12332;SDS011;6232;48.094;11.288;2023-08-17T15:51:27;14.93;;;4.00;;
12332;SDS011;6232;48.094;11.288;2023-08-17T15:54:13;3.60;;;3.30;;
12332;SDS011;6232;48.094;11.288;2023-08-17T15:56:58;4.70;;;3.67;;
12332;SDS011;6232;48.094;11.288;2023-08-17T15:59:44;8.90;;;3.40;;
12332;SDS011;6232;48.094;11.288;2023-08-17T16:02:30;9.10;;;3.73;;
12332;SDS011;6232;48.094;11.288;2023-08-17T16:05:15;3.47;;;2.87;;
12332;SDS011;6232;48.094;11.288;2023-08-17T16:08:01;4.17;;;3.07;;
12332;SDS011;6232;48.094;11.288;2023-08-17T16:10:46;5.13;;;3.17;;
12332;SDS011;6232;48.094;11.288;2023-08-17T16:13:32;3.07;;;2.77;;
12332;SDS011;6232;48.094;11.288;2023-08-17T16:16:17;9.90;;;2.60;;
12332;SDS011;6232;48.094;11.288;2023-08-17T16:19:03;3.33;;;2.93;;
12332;SDS011;6232;48.094;11.288;2023-08-17T16:21:48;4.43;;;3.20;;
12332;SDS011;6232;48.094;11.288;2023-08-17T16:24:34;6.13;;;3.30;;
12332;SDS011;6232;48.094;11.288;2023-08-17T16:27:20;5.53;;;3.20;;
12332;SDS011;6232;48.094;11.288;2023-08-17T16:30:05;6.37;;;3.37;;
12332;SDS011;6232;48.094;11.288;2023-08-17T16:32:51;5.30;;;3.80;;
12332;SDS011;6232;48.094;11.288;2023-08-17T16:35:37;5.73;;;3.50;;
12332;SDS011;6232;48.094;11.288;2023-08-17T16:38:22;6.57;;;3.10;;
12332;SDS011;6232;48.094;11.288;2023-08-17T16:41:09;6.97;;;4.37;;
12332;SDS011;6232;48.094;11.288;2023-08-17T16:43:55;3.90;;;3.30;;
12332;SDS011;6232;48.094;11.288;2023-08-17T16:46:40;12.83;;;4.47;;
12332;SDS011;6232;48.094;11.288;2023-08-17T16:49:26;9.27;;;3.60;;
12332;SDS011;6232;48.094;11.288;2023-08-17T16:52:12;6.37;;;4.60;;